Pagrindinis puslapis
METAR-TAF:

METAR-TAF

Oro uostai :

Cape Newenham, Aliaska, Jungtinės Amerikos Valstijos

platuma: 58-39N, ilguma: 162-04W, Aukštis: 165 m

Dabartinis oras

Ataskaita buvo paskelbta 17 minutes, ne 18:55 UTC
Vėjas 15 kt iš Rytų/Pietryčių su gūsio iki 26 kt, svyruoja nuo Šiaurės Rytų ir Pietryčių
Temperatūra -1°C
Drėgmė 93%
Slėgis 1004 hPa
Matomumas: 2.4 km
Su prošvaistėmis ne aukštis 300 ft
sniegas, rūkana

METAR: PAEH 161855Z AUTO 12015G26KT 050V140 1 1/2SM -SN BR BKN003 M01/M02 A2965 RMK AO2 PK WND 16026/1849 SNB1830 SLP050 P0000 T10141023

Laikas: 10:12 (19:12 UTC)


TAF: trūkstamas

Orai ataskaitas ir orų prognozės (METAR, TAF).

turimą stotys yra geltonos ir raudonos taškus žemėlapyje.

Perkelti pele per norėdami pamatyti stoties vardą.

Tada spustelėkite, norėdami matyti oro stebėjimo ir prognozės.

Norėdami pakeisti žemėlapį: spustelėkite ant žalios mygtukų su juodo kryžiaus žemyn,; žalią mygtuką su brūkšneliu, jei norite nutolinti; arba žalių rodyklių gretimoms žemėlapius.


METAR-TAF: